sensor_id;sensor_type;location;lat;lon;timestamp;pressure;altitude;pressure_sealevel;temperature;humidity
79703;BME280;69172;52.352;5.006;2023-04-24T00:02:01;99760.44;;;10.65;84.52
79703;BME280;69172;52.352;5.006;2023-04-24T00:04:26;99753.44;;;10.61;84.14
79703;BME280;69172;52.352;5.006;2023-04-24T00:06:51;99747.66;;;10.67;84.23
79703;BME280;69172;52.352;5.006;2023-04-24T00:09:22;99754.91;;;10.55;84.88
79703;BME280;69172;52.352;5.006;2023-04-24T00:11:48;99758.22;;;10.52;85.22
79703;BME280;69172;52.352;5.006;2023-04-24T00:14:13;99758.94;;;10.48;85.05
79703;BME280;69172;52.352;5.006;2023-04-24T00:16:38;99765.84;;;10.27;86.72
79703;BME280;69172;52.352;5.006;2023-04-24T00:19:04;99767.44;;;10.25;86.21
79703;BME280;69172;52.352;5.006;2023-04-24T00:21:31;99777.59;;;10.22;86.71
79703;BME280;69172;52.352;5.006;2023-04-24T00:23:58;99792.41;;;10.08;87.15
79703;BME280;69172;52.352;5.006;2023-04-24T00:26:23;99792.50;;;10.10;87.39
79703;BME280;69172;52.352;5.006;2023-04-24T00:28:48;99802.47;;;10.02;87.48
79703;BME280;69172;52.352;5.006;2023-04-24T00:31:14;99815.25;;;10.01;88.45
79703;BME280;69172;52.352;5.006;2023-04-24T00:33:39;99820.00;;;9.92;88.62
79703;BME280;69172;52.352;5.006;2023-04-24T00:36:05;99823.25;;;9.88;90.27
79703;BME280;69172;52.352;5.006;2023-04-24T00:38:31;99816.22;;;9.84;90.59
79703;BME280;69172;52.352;5.006;2023-04-24T00:40:56;99834.19;;;9.84;90.72
79703;BME280;69172;52.352;5.006;2023-04-24T00:43:22;99836.06;;;9.67;89.84
79703;BME280;69172;52.352;5.006;2023-04-24T00:45:47;99837.53;;;9.62;89.76
79703;BME280;69172;52.352;5.006;2023-04-24T00:48:13;99841.47;;;9.54;89.87
79703;BME280;69172;52.352;5.006;2023-04-24T00:50:38;99838.22;;;9.58;90.42
79703;BME280;69172;52.352;5.006;2023-04-24T00:53:04;99848.19;;;9.50;89.93
79703;BME280;69172;52.352;5.006;2023-04-24T00:55:30;99849.78;;;9.48;89.81
79703;BME280;69172;52.352;5.006;2023-04-24T00:57:55;99853.91;;;9.45;89.49
79703;BME280;69172;52.352;5.006;2023-04-24T01:00:21;99858.16;;;9.44;89.11
79703;BME280;69172;52.352;5.006;2023-04-24T01:02:48;99862.41;;;9.44;89.09
79703;BME280;69172;52.352;5.006;2023-04-24T01:05:14;99866.53;;;9.40;89.84
79703;BME280;69172;52.352;5.006;2023-04-24T01:07:45;99863.16;;;9.41;89.71
79703;BME280;69172;52.352;5.006;2023-04-24T01:10:11;99875.25;;;9.44;90.06
79703;BME280;69172;52.352;5.006;2023-04-24T01:12:38;99869.19;;;9.42;90.31
79703;BME280;69172;52.352;5.006;2023-04-24T01:15:04;99877.81;;;9.44;90.44
79703;BME280;69172;52.352;5.006;2023-04-24T01:17:30;99871.66;;;9.40;90.06
79703;BME280;69172;52.352;5.006;2023-04-24T01:19:56;99865.44;;;9.35;89.67
79703;BME280;69172;52.352;5.006;2023-04-24T01:22:22;99868.00;;;9.35;89.88
79703;BME280;69172;52.352;5.006;2023-04-24T01:24:47;99867.03;;;9.32;89.49
79703;BME280;69172;52.352;5.006;2023-04-24T01:27:13;99863.63;;;9.33;89.75
79703;BME280;69172;52.352;5.006;2023-04-24T01:29:39;99873.22;;;9.37;89.84
79703;BME280;69172;52.352;5.006;2023-04-24T01:32:04;99870.31;;;9.29;89.61
79703;BME280;69172;52.352;5.006;2023-04-24T01:34:30;99871.19;;;9.30;89.60
79703;BME280;69172;52.352;5.006;2023-04-24T01:36:56;99873.41;;;9.22;89.98
79703;BME280;69172;52.352;5.006;2023-04-24T01:39:22;99877.50;;;9.19;89.85
79703;BME280;69172;52.352;5.006;2023-04-24T01:41:49;99882.00;;;9.23;89.56
79703;BME280;69172;52.352;5.006;2023-04-24T01:44:15;99866.59;;;9.23;89.67
79703;BME280;69172;52.352;5.006;2023-04-24T01:46:41;99877.59;;;9.20;88.78
79703;BME280;69172;52.352;5.006;2023-04-24T01:49:06;99878.34;;;9.18;87.77
79703;BME280;69172;52.352;5.006;2023-04-24T01:51:31;99886.78;;;9.15;87.06
79703;BME280;69172;52.352;5.006;2023-04-24T01:53:57;99880.56;;;9.10;86.56
79703;BME280;69172;52.352;5.006;2023-04-24T01:56:22;99887.22;;;9.07;86.11
79703;BME280;69172;52.352;5.006;2023-04-24T01:58:52;99891.19;;;9.00;85.98
79703;BME280;69172;52.352;5.006;2023-04-24T02:01:19;99893.69;;;8.98;85.51
79703;BME280;69172;52.352;5.006;2023-04-24T02:03:45;99886.59;;;8.93;86.12
79703;BME280;69172;52.352;5.006;2023-04-24T02:06:11;99890.03;;;8.93;86.17
79703;BME280;69172;52.352;5.006;2023-04-24T02:08:36;99891.56;;;8.90;86.44
79703;BME280;69172;52.352;5.006;2023-04-24T02:11:01;99889.66;;;8.86;86.63
79703;BME280;69172;52.352;5.006;2023-04-24T02:13:27;99889.66;;;8.86;86.99
79703;BME280;69172;52.352;5.006;2023-04-24T02:15:53;99887.03;;;8.84;87.21
79703;BME280;69172;52.352;5.006;2023-04-24T02:18:18;99898.97;;;8.84;87.07
79703;BME280;69172;52.352;5.006;2023-04-24T02:20:45;99895.66;;;8.86;87.27
79703;BME280;69172;52.352;5.006;2023-04-24T02:23:10;99895.63;;;8.85;87.24
79703;BME280;69172;52.352;5.006;2023-04-24T02:25:35;99901.63;;;8.85;86.61
79703;BME280;69172;52.352;5.006;2023-04-24T02:28:00;99901.47;;;8.82;87.04
79703;BME280;69172;52.352;5.006;2023-04-24T02:30:26;99902.38;;;8.83;87.12
79703;BME280;69172;52.352;5.006;2023-04-24T02:32:52;99900.53;;;8.80;87.14
79703;BME280;69172;52.352;5.006;2023-04-24T02:35:17;99907.34;;;8.80;86.86
79703;BME280;69172;52.352;5.006;2023-04-24T02:37:42;99900.53;;;8.80;86.72
79703;BME280;69172;52.352;5.006;2023-04-24T02:40:08;99907.50;;;8.83;86.67
79703;BME280;69172;52.352;5.006;2023-04-24T02:42:34;99898.63;;;8.76;86.54
79703;BME280;69172;52.352;5.006;2023-04-24T02:44:59;99901.13;;;8.75;86.90
79703;BME280;69172;52.352;5.006;2023-04-24T02:47:25;99902.06;;;8.77;87.12
79703;BME280;69172;52.352;5.006;2023-04-24T02:49:50;99902.13;;;8.78;86.86
79703;BME280;69172;52.352;5.006;2023-04-24T02:52:15;99901.25;;;8.78;87.28
79703;BME280;69172;52.352;5.006;2023-04-24T02:54:42;99903.81;;;8.78;87.26
79703;BME280;69172;52.352;5.006;2023-04-24T02:57:08;99909.03;;;8.79;87.13
79703;BME280;69172;52.352;5.006;2023-04-24T02:59:34;99914.94;;;8.78;86.98
79703;BME280;69172;52.352;5.006;2023-04-24T03:01:59;99909.03;;;8.79;86.54
79703;BME280;69172;52.352;5.006;2023-04-24T03:04:25;99898.56;;;8.75;86.12
79703;BME280;69172;52.352;5.006;2023-04-24T03:06:51;99908.94;;;8.78;86.48
79703;BME280;69172;52.352;5.006;2023-04-24T03:09:18;99903.59;;;8.73;85.89
79703;BME280;69172;52.352;5.006;2023-04-24T03:11:43;99896.09;;;8.78;85.89
79703;BME280;69172;52.352;5.006;2023-04-24T03:14:08;99897.72;;;8.76;85.61
79703;BME280;69172;52.352;5.006;2023-04-24T03:16:34;99902.56;;;8.70;85.15
79703;BME280;69172;52.352;5.006;2023-04-24T03:18:59;99901.56;;;8.66;85.34
79703;BME280;69172;52.352;5.006;2023-04-24T03:21:25;99899.63;;;8.62;85.40
79703;BME280;69172;52.352;5.006;2023-04-24T03:23:51;99898.03;;;8.64;85.72
79703;BME280;69172;52.352;5.006;2023-04-24T03:26:17;99904.84;;;8.64;86.23
79703;BME280;69172;52.352;5.006;2023-04-24T03:28:42;99901.41;;;8.63;86.09
79703;BME280;69172;52.352;5.006;2023-04-24T03:31:08;99913.13;;;8.58;86.44
79703;BME280;69172;52.352;5.006;2023-04-24T03:33:33;99908.78;;;8.57;86.23
79703;BME280;69172;52.352;5.006;2023-04-24T03:35:58;99908.50;;;8.51;86.11
79703;BME280;69172;52.352;5.006;2023-04-24T03:38:24;99901.53;;;8.49;86.38
79703;BME280;69172;52.352;5.006;2023-04-24T03:40:49;99906.03;;;8.53;86.70
79703;BME280;69172;52.352;5.006;2023-04-24T03:43:14;99912.16;;;8.56;86.87
79703;BME280;69172;52.352;5.006;2023-04-24T03:45:40;99912.88;;;8.54;86.45
79703;BME280;69172;52.352;5.006;2023-04-24T03:48:05;99916.34;;;8.54;86.03
79703;BME280;69172;52.352;5.006;2023-04-24T03:50:31;99915.38;;;8.52;86.42
79703;BME280;69172;52.352;5.006;2023-04-24T03:52:56;99922.19;;;8.52;87.12
79703;BME280;69172;52.352;5.006;2023-04-24T03:55:21;99922.03;;;8.49;86.64
79703;BME280;69172;52.352;5.006;2023-04-24T03:57:47;99919.63;;;8.52;86.77
79703;BME280;69172;52.352;5.006;2023-04-24T04:00:12;99924.59;;;8.49;87.06
79703;BME280;69172;52.352;5.006;2023-04-24T04:02:38;99924.09;;;8.56;86.84
79703;BME280;69172;52.352;5.006;2023-04-24T04:05:03;99920.66;;;8.55;86.90
79703;BME280;69172;52.352;5.006;2023-04-24T04:07:29;99930.19;;;8.58;86.61
79703;BME280;69172;52.352;5.006;2023-04-24T04:09:55;99927.53;;;8.56;86.49
79703;BME280;69172;52.352;5.006;2023-04-24T04:12:20;99926.44;;;8.51;87.12
79703;BME280;69172;52.352;5.006;2023-04-24T04:14:45;99935.00;;;8.52;87.41
79703;BME280;69172;52.352;5.006;2023-04-24T04:17:10;99955.59;;;8.53;87.28
79703;BME280;69172;52.352;5.006;2023-04-24T04:19:36;99944.66;;;8.57;87.10
79703;BME280;69172;52.352;5.006;2023-04-24T04:22:02;99944.97;;;8.63;87.19
79703;BME280;69172;52.352;5.006;2023-04-24T04:24:27;99952.50;;;8.60;87.11
79703;BME280;69172;52.352;5.006;2023-04-24T04:26:53;99961.97;;;8.61;87.24
79703;BME280;69172;52.352;5.006;2023-04-24T04:29:22;99952.66;;;8.63;87.61
79703;BME280;69172;52.352;5.006;2023-04-24T04:31:48;99959.41;;;8.61;87.40
79703;BME280;69172;52.352;5.006;2023-04-24T04:34:14;99968.53;;;8.56;87.46
79703;BME280;69172;52.352;5.006;2023-04-24T04:36:40;99975.59;;;8.60;86.97
79703;BME280;69172;52.352;5.006;2023-04-24T04:39:06;99982.22;;;8.57;86.70
79703;BME280;69172;52.352;5.006;2023-04-24T04:41:32;99984.47;;;8.51;87.36
79703;BME280;69172;52.352;5.006;2023-04-24T04:44:01;99978.25;;;8.46;86.66
79703;BME280;69172;52.352;5.006;2023-04-24T04:46:26;99982.91;;;8.53;86.51
79703;BME280;69172;52.352;5.006;2023-04-24T04:48:53;99988.66;;;8.49;86.43
79703;BME280;69172;52.352;5.006;2023-04-24T04:51:18;99988.50;;;8.46;86.50
79703;BME280;69172;52.352;5.006;2023-04-24T04:53:44;99993.41;;;8.41;86.42
79703;BME280;69172;52.352;5.006;2023-04-24T04:56:09;99994.50;;;8.46;86.79
79703;BME280;69172;52.352;5.006;2023-04-24T04:58:35;99998.59;;;8.43;87.01
79703;BME280;69172;52.352;5.006;2023-04-24T05:01:00;100005.50;;;8.44;87.57
79703;BME280;69172;52.352;5.006;2023-04-24T05:03:26;100002.03;;;8.43;87.21
79703;BME280;69172;52.352;5.006;2023-04-24T05:05:51;100003.44;;;8.36;87.15
79703;BME280;69172;52.352;5.006;2023-04-24T05:08:16;100002.16;;;8.28;87.72
79703;BME280;69172;52.352;5.006;2023-04-24T05:10:42;100001.03;;;8.23;88.24
79703;BME280;69172;52.352;5.006;2023-04-24T05:13:07;100010.69;;;8.29;88.60
79703;BME280;69172;52.352;5.006;2023-04-24T05:15:33;100010.13;;;8.18;88.72
79703;BME280;69172;52.352;5.006;2023-04-24T05:17:58;100018.94;;;8.23;89.07
79703;BME280;69172;52.352;5.006;2023-04-24T05:20:23;100015.97;;;8.32;89.05
79703;BME280;69172;52.352;5.006;2023-04-24T05:22:49;100025.91;;;8.42;88.44
79703;BME280;69172;52.352;5.006;2023-04-24T05:25:14;100037.84;;;8.42;88.77
79703;BME280;69172;52.352;5.006;2023-04-24T05:27:40;100040.31;;;8.40;88.81
79703;BME280;69172;52.352;5.006;2023-04-24T05:30:06;100056.94;;;8.48;89.17
79703;BME280;69172;52.352;5.006;2023-04-24T05:32:32;100050.53;;;8.56;89.40
79703;BME280;69172;52.352;5.006;2023-04-24T05:34:57;100060.47;;;8.66;89.57
79703;BME280;69172;52.352;5.006;2023-04-24T05:37:23;100066.75;;;8.73;89.08
79703;BME280;69172;52.352;5.006;2023-04-24T05:39:48;100081.69;;;8.64;87.93
79703;BME280;69172;52.352;5.006;2023-04-24T05:42:14;100081.28;;;8.56;88.34
79703;BME280;69172;52.352;5.006;2023-04-24T05:44:39;100091.78;;;8.61;89.36
79703;BME280;69172;52.352;5.006;2023-04-24T05:47:04;100088.13;;;8.56;87.98
79703;BME280;69172;52.352;5.006;2023-04-24T05:49:30;100104.22;;;8.53;88.58
79703;BME280;69172;52.352;5.006;2023-04-24T05:51:56;100104.78;;;8.48;88.39
79703;BME280;69172;52.352;5.006;2023-04-24T05:54:22;100110.69;;;8.47;89.53
79703;BME280;69172;52.352;5.006;2023-04-24T05:56:49;100138.00;;;8.46;88.99
79703;BME280;69172;52.352;5.006;2023-04-24T05:59:14;100133.69;;;8.45;88.89
79703;BME280;69172;52.352;5.006;2023-04-24T06:01:40;100142.97;;;8.43;87.44
79703;BME280;69172;52.352;5.006;2023-04-24T06:04:05;100144.06;;;8.32;86.59
79703;BME280;69172;52.352;5.006;2023-04-24T06:06:31;100145.59;;;8.28;87.32
79703;BME280;69172;52.352;5.006;2023-04-24T06:08:57;100153.28;;;8.28;86.98
79703;BME280;69172;52.352;5.006;2023-04-24T06:11:24;100152.47;;;8.29;87.35
79703;BME280;69172;52.352;5.006;2023-04-24T06:13:50;100161.03;;;8.30;87.79
79703;BME280;69172;52.352;5.006;2023-04-24T06:16:16;100175.31;;;8.26;87.96
79703;BME280;69172;52.352;5.006;2023-04-24T06:18:41;100186.13;;;8.21;87.33
79703;BME280;69172;52.352;5.006;2023-04-24T06:21:07;100188.53;;;8.18;87.26
79703;BME280;69172;52.352;5.006;2023-04-24T06:23:34;100197.81;;;8.16;86.49
79703;BME280;69172;52.352;5.006;2023-04-24T06:25:59;100200.53;;;8.19;86.93
79703;BME280;69172;52.352;5.006;2023-04-24T06:28:25;100228.72;;;8.19;85.10
79703;BME280;69172;52.352;5.006;2023-04-24T06:30:50;100207.31;;;8.18;84.21
79703;BME280;69172;52.352;5.006;2023-04-24T06:33:16;100226.06;;;8.17;84.64
79703;BME280;69172;52.352;5.006;2023-04-24T06:35:42;100219.19;;;8.16;84.13
79703;BME280;69172;52.352;5.006;2023-04-24T06:38:08;100231.19;;;8.17;84.28
79703;BME280;69172;52.352;5.006;2023-04-24T06:40:33;100246.47;;;8.16;84.28
79703;BME280;69172;52.352;5.006;2023-04-24T06:42:59;100249.75;;;8.13;84.29
79703;BME280;69172;52.352;5.006;2023-04-24T06:45:28;100245.75;;;8.18;84.43
79703;BME280;69172;52.352;5.006;2023-04-24T06:47:54;100250.88;;;8.18;84.26
79703;BME280;69172;52.352;5.006;2023-04-24T06:50:20;100257.00;;;8.20;83.74
79703;BME280;69172;52.352;5.006;2023-04-24T06:52:45;100258.00;;;8.24;83.85
79703;BME280;69172;52.352;5.006;2023-04-24T06:55:11;100271.63;;;8.23;84.22
79703;BME280;69172;52.352;5.006;2023-04-24T06:57:36;100270.75;;;8.22;84.87
79703;BME280;69172;52.352;5.006;2023-04-24T07:00:03;100285.06;;;8.19;84.08
79703;BME280;69172;52.352;5.006;2023-04-24T07:02:30;100285.16;;;8.20;84.28
79703;BME280;69172;52.352;5.006;2023-04-24T07:04:55;100287.72;;;8.20;84.91
79703;BME280;69172;52.352;5.006;2023-04-24T07:07:21;100284.28;;;8.20;85.27
79703;BME280;69172;52.352;5.006;2023-04-24T07:09:46;100305.81;;;8.23;84.08
79703;BME280;69172;52.352;5.006;2023-04-24T07:12:11;100305.97;;;8.26;83.83
79703;BME280;69172;52.352;5.006;2023-04-24T07:14:37;100311.47;;;8.32;83.28
79703;BME280;69172;52.352;5.006;2023-04-24T07:17:04;100298.66;;;8.32;82.52
79703;BME280;69172;52.352;5.006;2023-04-24T07:19:29;100315.72;;;8.32;82.17
79703;BME280;69172;52.352;5.006;2023-04-24T07:21:55;100317.41;;;8.31;81.61
79703;BME280;69172;52.352;5.006;2023-04-24T07:24:20;100319.09;;;8.31;82.10
79703;BME280;69172;52.352;5.006;2023-04-24T07:26:46;100327.28;;;8.25;83.84
79703;BME280;69172;52.352;5.006;2023-04-24T07:29:12;100330.09;;;8.15;85.06
79703;BME280;69172;52.352;5.006;2023-04-24T07:31:38;100333.47;;;8.14;85.56
79703;BME280;69172;52.352;5.006;2023-04-24T07:34:04;100343.59;;;8.13;85.92
79703;BME280;69172;52.352;5.006;2023-04-24T07:36:29;100349.38;;;8.09;86.15
79703;BME280;69172;52.352;5.006;2023-04-24T07:38:55;100353.94;;;8.00;86.46
79703;BME280;69172;52.352;5.006;2023-04-24T07:41:21;100360.66;;;7.98;86.50
79703;BME280;69172;52.352;5.006;2023-04-24T07:43:47;100366.94;;;8.03;85.51
79703;BME280;69172;52.352;5.006;2023-04-24T07:46:12;100374.03;;;8.07;85.30
79703;BME280;69172;52.352;5.006;2023-04-24T07:48:37;100381.00;;;8.09;83.91
79703;BME280;69172;52.352;5.006;2023-04-24T07:51:03;100410.31;;;8.14;83.79
79703;BME280;69172;52.352;5.006;2023-04-24T07:53:29;100392.00;;;8.08;81.63
79703;BME280;69172;52.352;5.006;2023-04-24T07:55:56;100407.84;;;8.01;82.79
79703;BME280;69172;52.352;5.006;2023-04-24T07:58:21;100409.56;;;8.02;83.23
79703;BME280;69172;52.352;5.006;2023-04-24T08:00:47;100418.78;;;7.99;82.22
79703;BME280;69172;52.352;5.006;2023-04-24T08:03:12;100407.66;;;7.98;83.01
79703;BME280;69172;52.352;5.006;2023-04-24T08:05:38;100422.38;;;8.02;81.71
79703;BME280;69172;52.352;5.006;2023-04-24T08:08:03;100429.88;;;7.99;82.04
79703;BME280;69172;52.352;5.006;2023-04-24T08:10:29;100425.13;;;8.05;81.63
79703;BME280;69172;52.352;5.006;2023-04-24T08:12:54;100435.66;;;8.10;80.62
79703;BME280;69172;52.352;5.006;2023-04-24T08:15:20;100429.66;;;8.09;79.74
79703;BME280;69172;52.352;5.006;2023-04-24T08:17:46;100445.97;;;8.11;79.90
79703;BME280;69172;52.352;5.006;2023-04-24T08:20:12;100440.34;;;8.17;79.23
79703;BME280;69172;52.352;5.006;2023-04-24T08:22:41;100452.34;;;8.18;78.50
79703;BME280;69172;52.352;5.006;2023-04-24T08:25:07;100459.66;;;8.26;76.84
79703;BME280;69172;52.352;5.006;2023-04-24T08:27:33;100472.97;;;8.34;74.90
79703;BME280;69172;52.352;5.006;2023-04-24T08:29:58;100473.41;;;8.42;71.94
79703;BME280;69172;52.352;5.006;2023-04-24T08:32:25;100477.19;;;8.48;73.02
79703;BME280;69172;52.352;5.006;2023-04-24T08:34:53;100466.53;;;8.55;72.42
79703;BME280;69172;52.352;5.006;2023-04-24T08:37:18;100474.41;;;8.58;72.77
79703;BME280;69172;52.352;5.006;2023-04-24T08:39:44;100484.91;;;8.63;71.36
79703;BME280;69172;52.352;5.006;2023-04-24T08:42:11;100478.16;;;8.65;71.56
79703;BME280;69172;52.352;5.006;2023-04-24T08:44:36;100505.66;;;8.67;70.75
79703;BME280;69172;52.352;5.006;2023-04-24T08:47:02;100491.81;;;8.64;71.77
79703;BME280;69172;52.352;5.006;2023-04-24T08:49:28;100507.50;;;8.70;71.47
79703;BME280;69172;52.352;5.006;2023-04-24T08:51:54;100499.56;;;8.65;72.59
79703;BME280;69172;52.352;5.006;2023-04-24T08:54:20;100503.38;;;8.57;72.43
79703;BME280;69172;52.352;5.006;2023-04-24T08:56:47;100521.84;;;8.52;72.96
79703;BME280;69172;52.352;5.006;2023-04-24T08:59:14;100511.16;;;8.44;74.22
79703;BME280;69172;52.352;5.006;2023-04-24T09:01:40;100517.25;;;8.04;75.35
79703;BME280;69172;52.352;5.006;2023-04-24T09:04:08;100530.00;;;7.89;77.10
79703;BME280;69172;52.352;5.006;2023-04-24T09:06:35;100525.41;;;7.70;77.57
79703;BME280;69172;52.352;5.006;2023-04-24T09:09:02;100538.78;;;7.79;76.99
79703;BME280;69172;52.352;5.006;2023-04-24T09:11:30;100530.13;;;7.77;77.99
79703;BME280;69172;52.352;5.006;2023-04-24T09:13:56;100540.16;;;7.88;78.13
79703;BME280;69172;52.352;5.006;2023-04-24T09:16:21;100526.91;;;7.95;75.97
79703;BME280;69172;52.352;5.006;2023-04-24T09:18:49;100545.59;;;8.07;75.82
79703;BME280;69172;52.352;5.006;2023-04-24T09:21:15;100564.88;;;8.15;74.70
79703;BME280;69172;52.352;5.006;2023-04-24T09:23:40;100538.41;;;8.29;73.68
79703;BME280;69172;52.352;5.006;2023-04-24T09:26:06;100540.81;;;8.41;73.62
79703;BME280;69172;52.352;5.006;2023-04-24T09:28:38;100544.91;;;8.52;73.32
79703;BME280;69172;52.352;5.006;2023-04-24T09:31:15;100543.06;;;8.64;72.71
79703;BME280;69172;52.352;5.006;2023-04-24T09:34:02;100549.19;;;8.80;71.25
79703;BME280;69172;52.352;5.006;2023-04-24T09:36:39;100556.16;;;8.83;71.41
79703;BME280;69172;52.352;5.006;2023-04-24T09:39:10;100555.53;;;8.87;71.83
79703;BME280;69172;52.352;5.006;2023-04-24T09:41:49;100552.25;;;8.89;72.19
79703;BME280;69172;52.352;5.006;2023-04-24T09:44:22;100564.19;;;9.04;72.56
79703;BME280;69172;52.352;5.006;2023-04-24T09:46:55;100561.34;;;9.14;72.02
79703;BME280;69172;52.352;5.006;2023-04-24T09:49:31;100558.88;;;9.15;70.59
79703;BME280;69172;52.352;5.006;2023-04-24T09:52:06;100557.16;;;9.30;69.81
79703;BME280;69172;52.352;5.006;2023-04-24T09:54:31;100559.66;;;9.29;70.49
79703;BME280;69172;52.352;5.006;2023-04-24T09:56:57;100604.16;;;9.29;68.93
79703;BME280;69172;52.352;5.006;2023-04-24T09:59:22;100571.00;;;9.18;69.62
79703;BME280;69172;52.352;5.006;2023-04-24T10:01:54;100582.28;;;9.36;68.66
79703;BME280;69172;52.352;5.006;2023-04-24T10:04:25;100583.81;;;9.48;68.73
79703;BME280;69172;52.352;5.006;2023-04-24T10:06:53;100582.31;;;9.52;67.07
79703;BME280;69172;52.352;5.006;2023-04-24T10:09:21;100600.00;;;9.31;67.68
79703;BME280;69172;52.352;5.006;2023-04-24T10:11:49;100601.41;;;9.12;68.86
79703;BME280;69172;52.352;5.006;2023-04-24T10:14:17;100604.25;;;9.02;70.17
79703;BME280;69172;52.352;5.006;2023-04-24T10:16:43;100599.63;;;9.11;69.18
79703;BME280;69172;52.352;5.006;2023-04-24T10:19:10;100603.19;;;8.98;68.25
79703;BME280;69172;52.352;5.006;2023-04-24T10:21:40;100624.59;;;8.98;67.63
79703;BME280;69172;52.352;5.006;2023-04-24T10:24:10;100622.28;;;9.03;66.10
79703;BME280;69172;52.352;5.006;2023-04-24T10:26:36;100635.19;;;8.90;66.34
79703;BME280;69172;52.352;5.006;2023-04-24T10:29:04;100638.13;;;8.96;66.32
79703;BME280;69172;52.352;5.006;2023-04-24T10:31:31;100624.16;;;8.91;67.16
79703;BME280;69172;52.352;5.006;2023-04-24T10:33:58;100635.56;;;8.96;70.42
79703;BME280;69172;52.352;5.006;2023-04-24T10:36:25;100654.97;;;8.78;71.57
79703;BME280;69172;52.352;5.006;2023-04-24T10:38:54;100642.78;;;8.74;73.31
79703;BME280;69172;52.352;5.006;2023-04-24T10:41:21;100643.88;;;8.77;72.44
79703;BME280;69172;52.352;5.006;2023-04-24T10:44:05;100629.06;;;8.73;72.38
79703;BME280;69172;52.352;5.006;2023-04-24T10:46:32;100652.91;;;8.58;72.01
79703;BME280;69172;52.352;5.006;2023-04-24T10:48:58;100648.09;;;8.77;72.89
79703;BME280;69172;52.352;5.006;2023-04-24T10:51:44;100636.81;;;8.88;71.35
79703;BME280;69172;52.352;5.006;2023-04-24T10:54:25;100640.78;;;9.12;70.85
79703;BME280;69172;52.352;5.006;2023-04-24T10:56:53;100642.97;;;9.35;69.74
79703;BME280;69172;52.352;5.006;2023-04-24T10:59:27;100636.09;;;9.34;70.49
79703;BME280;69172;52.352;5.006;2023-04-24T11:01:53;100650.97;;;9.40;69.08
79703;BME280;69172;52.352;5.006;2023-04-24T11:04:31;100637.53;;;9.60;68.59
79703;BME280;69172;52.352;5.006;2023-04-24T11:06:57;100647.56;;;9.70;67.29
79703;BME280;69172;52.352;5.006;2023-04-24T11:09:26;100656.22;;;9.72;65.41
79703;BME280;69172;52.352;5.006;2023-04-24T11:12:11;100658.91;;;9.59;66.40
79703;BME280;69172;52.352;5.006;2023-04-24T11:15:00;100668.00;;;9.69;65.44
79703;BME280;69172;52.352;5.006;2023-04-24T11:17:43;100661.28;;;9.56;66.60
79703;BME280;69172;52.352;5.006;2023-04-24T11:20:11;100669.88;;;9.56;67.58
79703;BME280;69172;52.352;5.006;2023-04-24T11:22:38;100678.13;;;9.82;66.06
79703;BME280;69172;52.352;5.006;2023-04-24T11:25:06;100674.63;;;9.65;65.69
79703;BME280;69172;52.352;5.006;2023-04-24T11:27:39;100684.81;;;9.49;65.71
79703;BME280;69172;52.352;5.006;2023-04-24T11:30:05;100665.59;;;9.57;66.37
79703;BME280;69172;52.352;5.006;2023-04-24T11:35:08;100702.63;;;9.75;63.18
79703;BME280;69172;52.352;5.006;2023-04-24T11:37:36;100659.56;;;9.86;61.40
79703;BME280;69172;52.352;5.006;2023-04-24T11:40:03;100665.41;;;10.14;60.39
79703;BME280;69172;52.352;5.006;2023-04-24T11:42:37;100670.34;;;10.26;61.05
79703;BME280;69172;52.352;5.006;2023-04-24T11:47:33;100694.97;;;9.77;61.23
79703;BME280;69172;52.352;5.006;2023-04-24T11:49:59;100686.44;;;9.92;61.17
79703;BME280;69172;52.352;5.006;2023-04-24T11:52:29;100687.13;;;10.19;60.51
79703;BME280;69172;52.352;5.006;2023-04-24T11:54:55;100691.84;;;10.28;60.79
79703;BME280;69172;52.352;5.006;2023-04-24T11:57:22;100717.88;;;10.18;60.44
79703;BME280;69172;52.352;5.006;2023-04-24T11:59:48;100702.06;;;10.26;61.58
79703;BME280;69172;52.352;5.006;2023-04-24T12:02:24;100704.63;;;10.26;61.75
79703;BME280;69172;52.352;5.006;2023-04-24T12:04:50;100717.25;;;10.07;62.40
79703;BME280;69172;52.352;5.006;2023-04-24T12:07:16;100738.53;;;9.90;63.28
79703;BME280;69172;52.352;5.006;2023-04-24T12:09:42;100728.91;;;9.42;68.19
79703;BME280;69172;52.352;5.006;2023-04-24T12:12:08;100760.28;;;9.09;71.05
79703;BME280;69172;52.352;5.006;2023-04-24T12:14:44;100747.53;;;8.68;74.80
79703;BME280;69172;52.352;5.006;2023-04-24T12:17:10;100775.09;;;8.44;73.97
79703;BME280;69172;52.352;5.006;2023-04-24T12:19:35;100758.34;;;8.36;70.28
79703;BME280;69172;52.352;5.006;2023-04-24T12:22:03;100756.72;;;8.51;67.27
79703;BME280;69172;52.352;5.006;2023-04-24T12:24:29;100750.91;;;8.67;65.36
79703;BME280;69172;52.352;5.006;2023-04-24T12:26:55;100760.91;;;8.77;65.80
79703;BME280;69172;52.352;5.006;2023-04-24T12:29:21;100753.53;;;8.96;66.45
79703;BME280;69172;52.352;5.006;2023-04-24T12:31:49;100769.56;;;9.07;65.78
79703;BME280;69172;52.352;5.006;2023-04-24T12:36:45;100777.91;;;9.17;65.35
79703;BME280;69172;52.352;5.006;2023-04-24T12:39:17;100763.00;;;9.39;66.07
79703;BME280;69172;52.352;5.006;2023-04-24T12:41:56;100767.25;;;9.53;64.86
79703;BME280;69172;52.352;5.006;2023-04-24T12:44:32;100769.28;;;9.74;64.89
79703;BME280;69172;52.352;5.006;2023-04-24T12:46:59;100787.19;;;9.72;61.78
79703;BME280;69172;52.352;5.006;2023-04-24T12:49:24;100781.44;;;9.62;62.65
79703;BME280;69172;52.352;5.006;2023-04-24T12:51:50;100772.09;;;9.49;64.48
79703;BME280;69172;52.352;5.006;2023-04-24T12:54:15;100793.88;;;9.26;63.16
79703;BME280;69172;52.352;5.006;2023-04-24T12:56:41;100802.59;;;9.30;63.42
79703;BME280;69172;52.352;5.006;2023-04-24T12:59:06;100806.00;;;9.29;64.37
79703;BME280;69172;52.352;5.006;2023-04-24T13:01:31;100787.00;;;9.40;63.96
79703;BME280;69172;52.352;5.006;2023-04-24T13:03:57;100794.50;;;9.51;63.72
79703;BME280;69172;52.352;5.006;2023-04-24T13:06:22;100794.44;;;9.50;63.76
79703;BME280;69172;52.352;5.006;2023-04-24T13:08:47;100792.19;;;9.41;64.98